createdAt,value
2022-11-22T00:00:20.082Z,79.10
2022-11-22T00:03:09.531Z,79.16
2022-11-22T00:05:38.842Z,78.74
2022-11-22T00:08:08.513Z,79.17
2022-11-22T00:10:39.261Z,79.58
2022-11-22T00:13:08.376Z,78.63
2022-11-22T00:15:37.928Z,78.86
2022-11-22T00:18:07.123Z,78.38
2022-11-22T00:20:37.273Z,79.28
2022-11-22T00:23:06.408Z,79.26
2022-11-22T00:25:35.798Z,78.93
2022-11-22T00:28:06.427Z,78.76
2022-11-22T00:30:35.883Z,78.89
2022-11-22T00:33:05.099Z,78.60
2022-11-22T00:35:34.514Z,78.40
2022-11-22T00:38:03.521Z,78.61
2022-11-22T00:40:32.856Z,78.17
2022-11-22T00:43:01.933Z,78.21
2022-11-22T00:45:32.724Z,78.39
2022-11-22T00:48:01.947Z,78.05
2022-11-22T00:50:31.492Z,78.62
2022-11-22T00:53:00.626Z,78.26
2022-11-22T00:55:29.953Z,79.17
2022-11-22T00:57:59.110Z,78.53
2022-11-22T01:00:28.619Z,77.82
2022-11-22T01:02:59.106Z,77.71
2022-11-22T01:05:28.696Z,78.62
2022-11-22T01:07:57.824Z,78.36
2022-11-22T01:10:27.157Z,78.33
2022-11-22T01:12:58.045Z,78.00
2022-11-22T01:15:27.504Z,77.85
2022-11-22T01:17:56.514Z,77.65
2022-11-22T01:20:27.407Z,77.63
2022-11-22T01:22:56.467Z,78.14
2022-11-22T01:25:25.957Z,78.26
2022-11-22T01:27:55.259Z,78.91
2022-11-22T01:30:24.692Z,78.59
2022-11-22T01:32:53.762Z,78.92
2022-11-22T01:35:23.478Z,78.68
2022-11-22T01:37:53.862Z,78.74
2022-11-22T01:40:23.458Z,79.29
2022-11-22T01:42:54.532Z,78.67
2022-11-22T01:45:46.047Z,79.07
2022-11-22T01:48:24.988Z,78.16
2022-11-22T01:50:59.168Z,78.19
2022-11-22T01:53:33.673Z,78.44
2022-11-22T01:56:06.810Z,78.02
2022-11-22T01:58:38.447Z,77.82
2022-11-22T02:01:08.858Z,78.15
2022-11-22T02:03:40.713Z,78.90
2022-11-22T02:06:10.399Z,77.61
2022-11-22T02:08:48.414Z,77.73
2022-11-22T02:11:19.210Z,77.54
2022-11-22T02:13:48.875Z,77.70
2022-11-22T02:16:18.286Z,77.94
2022-11-22T02:18:47.399Z,77.66
2022-11-22T02:21:16.737Z,77.69
2022-11-22T02:24:00.818Z,77.72
2022-11-22T02:26:32.536Z,77.66
2022-11-22T02:29:07.853Z,77.81
2022-11-22T02:31:42.538Z,77.32
2022-11-22T02:34:12.736Z,78.05
2022-11-22T02:36:46.999Z,78.29
2022-11-22T02:39:19.481Z,77.88
2022-11-22T02:41:51.560Z,77.76
2022-11-22T02:44:21.875Z,78.14
2022-11-22T02:46:53.998Z,78.07
2022-11-22T02:49:26.200Z,77.90
2022-11-22T02:51:55.591Z,77.46
2022-11-22T02:54:24.673Z,77.33
2022-11-22T02:56:55.425Z,77.29
2022-11-22T02:59:24.455Z,77.11
2022-11-22T03:01:55.608Z,76.98
2022-11-22T03:04:27.777Z,77.37
2022-11-22T03:06:58.706Z,77.32
2022-11-22T03:09:29.187Z,76.88
2022-11-22T03:12:00.291Z,76.89
2022-11-22T03:14:29.382Z,76.80
2022-11-22T03:16:58.745Z,77.52
2022-11-22T03:19:28.111Z,77.87
2022-11-22T03:21:57.634Z,77.68
2022-11-22T03:24:26.902Z,77.72
2022-11-22T03:26:56.375Z,77.86
2022-11-22T03:29:27.060Z,78.46
2022-11-22T03:36:42.748Z,77.76
2022-11-22T03:39:11.889Z,77.34
2022-11-22T03:41:41.364Z,77.03
2022-11-22T03:44:10.563Z,77.85
2022-11-22T03:46:41.330Z,76.88
2022-11-22T03:49:11.959Z,77.64
2022-11-22T03:51:41.394Z,77.83
2022-11-22T03:54:10.596Z,77.70
2022-11-22T03:56:40.108Z,77.85
2022-11-22T03:59:09.200Z,77.01
2022-11-22T04:01:38.625Z,77.14
2022-11-22T04:04:09.126Z,77.44
2022-11-22T04:06:42.898Z,77.04
2022-11-22T04:09:12.297Z,77.04
2022-11-22T04:11:41.655Z,77.06
2022-11-22T04:14:30.547Z,77.26
2022-11-22T04:17:00.027Z,77.31
2022-11-22T04:19:30.697Z,77.40
2022-11-22T04:21:59.115Z,77.79
2022-11-22T04:24:45.248Z,78.28
2022-11-22T04:27:14.667Z,77.92
2022-11-22T04:29:43.747Z,77.69
2022-11-22T04:32:30.994Z,77.40
2022-11-22T04:35:01.455Z,77.12
2022-11-22T04:37:30.803Z,77.15
2022-11-22T04:39:59.794Z,77.05
2022-11-22T04:42:46.676Z,77.38
2022-11-22T04:45:15.689Z,77.36
2022-11-22T04:48:00.454Z,76.83
2022-11-22T04:50:49.192Z,76.76
2022-11-22T04:53:19.974Z,76.40
2022-11-22T04:55:49.581Z,76.97
2022-11-22T04:58:19.073Z,77.56
2022-11-22T05:00:48.545Z,77.84
2022-11-22T05:03:18.406Z,77.79
2022-11-22T05:05:48.812Z,77.32
2022-11-22T05:08:18.420Z,76.80
2022-11-22T05:10:57.956Z,77.09
2022-11-22T05:13:30.123Z,77.91
2022-11-22T05:16:00.443Z,77.96
2022-11-22T05:18:31.547Z,77.83
2022-11-22T05:21:06.319Z,77.84
2022-11-22T05:23:53.217Z,77.97
2022-11-22T05:26:25.719Z,77.78
2022-11-22T05:28:56.910Z,77.41
2022-11-22T05:31:27.932Z,77.33
2022-11-22T05:33:58.623Z,77.72
2022-11-22T05:36:29.143Z,77.73
2022-11-22T05:38:58.613Z,77.72
2022-11-22T05:41:27.735Z,77.78
2022-11-22T05:43:57.426Z,77.61
2022-11-22T05:46:28.714Z,77.29
2022-11-22T05:48:59.651Z,77.16
2022-11-22T05:51:34.653Z,76.91
2022-11-22T05:54:04.591Z,77.12
2022-11-22T05:56:33.625Z,77.72
2022-11-22T05:59:03.118Z,77.33
2022-11-22T06:01:32.136Z,77.80
2022-11-22T06:04:02.853Z,78.15
2022-11-22T06:06:33.556Z,77.98
2022-11-22T06:09:02.885Z,78.81
2022-11-22T06:11:31.973Z,78.68
2022-11-22T06:14:03.518Z,78.60
2022-11-22T06:16:32.896Z,78.86
2022-11-22T06:19:02.351Z,78.50
2022-11-22T06:21:32.874Z,78.19
2022-11-22T06:24:02.257Z,78.39
2022-11-22T06:26:36.104Z,79.11
2022-11-22T06:29:08.620Z,78.72
2022-11-22T06:34:15.247Z,79.14
2022-11-22T06:36:45.007Z,78.96
2022-11-22T06:39:14.608Z,79.05
2022-11-22T06:41:44.184Z,79.05
2022-11-22T06:44:13.224Z,79.02
2022-11-22T06:46:42.622Z,78.92
2022-11-22T06:49:11.897Z,78.72
2022-11-22T06:51:42.617Z,78.55
2022-11-22T06:54:12.664Z,78.41
2022-11-22T06:56:42.695Z,78.73
2022-11-22T06:59:12.068Z,79.95
2022-11-22T07:01:41.557Z,78.86
2022-11-22T07:04:11.248Z,78.98
2022-11-22T07:06:44.201Z,79.46
2022-11-22T07:09:13.617Z,79.97
2022-11-22T07:11:43.174Z,79.61
2022-11-22T07:14:12.296Z,79.03
2022-11-22T07:16:41.671Z,78.98
2022-11-22T07:19:11.110Z,79.34
2022-11-22T07:21:42.084Z,79.48
2022-11-22T07:24:11.224Z,79.52
2022-11-22T07:26:40.732Z,79.08
2022-11-22T07:29:09.998Z,79.33
2022-11-22T07:31:39.368Z,79.65
2022-11-22T07:34:08.482Z,80.91
2022-11-22T07:36:37.895Z,81.36
2022-11-22T07:39:08.450Z,80.73
2022-11-22T07:41:37.784Z,81.14
2022-11-22T07:44:06.971Z,81.32
2022-11-22T07:46:36.392Z,80.69
2022-11-22T07:49:05.438Z,80.57
2022-11-22T07:51:34.687Z,80.26
2022-11-22T07:54:03.832Z,81.04
2022-11-22T07:56:35.525Z,81.09
2022-11-22T07:59:04.790Z,81.27
2022-11-22T08:01:34.194Z,80.68
2022-11-22T08:04:03.313Z,80.78
2022-11-22T08:06:32.732Z,80.69
2022-11-22T08:09:02.427Z,81.05
2022-11-22T08:11:33.284Z,82.11
2022-11-22T08:14:02.335Z,81.99
2022-11-22T08:16:31.847Z,82.09
2022-11-22T08:19:00.981Z,82.17
2022-11-22T08:21:30.334Z,81.51
2022-11-22T08:24:00.359Z,81.61
2022-11-22T17:00:43.142Z,92.03
2022-11-22T17:03:19.570Z,91.42
2022-11-22T17:05:49.519Z,91.26
2022-11-22T17:08:20.803Z,90.32
2022-11-22T17:10:51.889Z,90.20
2022-11-22T17:13:25.483Z,90.26
2022-11-22T17:15:57.278Z,90.24
2022-11-22T17:47:59.174Z,94.45
2022-11-22T17:50:28.683Z,92.61
2022-11-22T17:52:57.904Z,92.11
2022-11-22T17:55:42.702Z,92.02
2022-11-22T17:58:16.642Z,91.69
2022-11-22T18:00:45.973Z,92.09
2022-11-22T18:03:16.408Z,92.32
2022-11-22T18:05:45.756Z,91.89
2022-11-22T18:08:14.862Z,92.02
2022-11-22T18:10:44.277Z,91.76
2022-11-22T18:13:22.325Z,91.72
2022-11-22T18:16:00.090Z,91.48
2022-11-22T18:18:55.644Z,91.39
2022-11-22T18:21:24.438Z,91.19
2022-11-22T18:23:53.989Z,91.41
2022-11-22T18:26:38.751Z,91.18
2022-11-22T18:29:39.026Z,91.34
2022-11-22T18:31:59.250Z,91.17
2022-11-22T18:34:30.627Z,91.20
2022-11-22T18:37:03.554Z,91.26
2022-11-22T18:39:36.556Z,91.26
2022-11-22T18:42:07.916Z,91.20
2022-11-22T18:44:37.050Z,90.81
2022-11-22T18:47:06.515Z,91.04
2022-11-22T18:49:37.565Z,91.81
2022-11-22T18:52:08.785Z,91.32
2022-11-22T18:54:39.909Z,90.62
2022-11-22T18:57:09.234Z,90.67
2022-11-22T18:59:38.342Z,90.99
2022-11-22T19:02:08.909Z,90.86
2022-11-22T19:04:39.485Z,91.24
2022-11-22T19:07:09.140Z,90.59
2022-11-22T19:09:38.210Z,90.57
2022-11-22T19:12:07.937Z,90.67
2022-11-22T19:14:37.221Z,89.91
2022-11-22T19:17:09.034Z,91.39
2022-11-22T19:19:39.492Z,90.83
2022-11-22T19:22:08.819Z,90.58
2022-11-22T19:24:37.882Z,90.64
2022-11-22T19:27:07.353Z,90.48
2022-11-22T19:29:36.685Z,90.17
2022-11-22T19:32:06.432Z,90.66
2022-11-22T19:34:35.603Z,90.78
2022-11-22T19:37:06.833Z,89.88
2022-11-22T19:39:36.250Z,90.22
2022-11-22T19:42:05.875Z,89.68
2022-11-22T19:44:37.936Z,89.82
2022-11-22T19:47:07.554Z,89.42
2022-11-22T19:49:36.586Z,89.96
2022-11-22T19:52:07.477Z,88.83
2022-11-22T19:54:36.563Z,88.70
2022-11-22T19:57:06.067Z,100.00
2022-11-22T19:59:36.061Z,88.74
2022-11-22T20:02:05.697Z,89.27
2022-11-22T20:04:34.823Z,89.20
2022-11-22T20:07:04.809Z,88.87
2022-11-22T20:09:38.116Z,89.29
2022-11-22T20:12:07.599Z,89.46
2022-11-22T20:14:36.697Z,89.07
2022-11-22T20:17:06.071Z,89.08
2022-11-22T20:19:35.404Z,89.32
2022-11-22T20:22:04.860Z,89.83
2022-11-22T20:24:35.411Z,89.32
2022-11-22T20:27:05.340Z,89.61
2022-11-22T20:29:34.440Z,89.13
2022-11-22T20:32:03.852Z,88.70
2022-11-22T20:34:34.192Z,88.21
2022-11-22T20:37:03.884Z,88.69
2022-11-22T20:39:36.454Z,87.88
2022-11-22T20:42:33.017Z,88.89
2022-11-22T20:44:55.312Z,89.11
2022-11-22T20:47:24.730Z,88.40
2022-11-22T20:49:53.830Z,88.76
2022-11-22T20:52:23.297Z,87.45
2022-11-22T20:54:53.969Z,87.22
2022-11-22T20:57:23.579Z,87.30
2022-11-22T20:59:52.671Z,87.28
2022-11-22T21:02:22.005Z,87.19
2022-11-22T21:04:51.188Z,87.53
2022-11-22T21:07:20.540Z,87.20
2022-11-22T21:09:49.797Z,87.79
2022-11-22T21:12:20.475Z,87.96
2022-11-22T21:14:53.596Z,87.75
2022-11-22T21:17:45.595Z,86.86
2022-11-22T21:20:13.498Z,86.56
2022-11-22T21:22:43.084Z,86.93
2022-11-22T21:25:12.385Z,87.33
2022-11-22T21:27:43.258Z,87.01
2022-11-22T21:30:13.443Z,87.58
2022-11-22T21:32:42.950Z,87.38
2022-11-22T21:35:12.772Z,86.97
2022-11-22T21:37:42.615Z,87.44
2022-11-22T21:40:13.132Z,88.46
2022-11-22T21:42:44.678Z,87.73
2022-11-22T21:45:13.806Z,87.82
2022-11-22T21:47:43.221Z,87.20
2022-11-22T21:50:13.149Z,87.58
2022-11-22T21:52:43.430Z,87.71
2022-11-22T21:55:13.125Z,88.01
2022-11-22T21:57:43.936Z,87.71
2022-11-22T22:00:14.473Z,88.81
2022-11-22T22:02:43.956Z,88.44
2022-11-22T22:05:13.682Z,88.05
2022-11-22T22:07:52.481Z,87.49
2022-11-22T22:10:22.381Z,87.59
2022-11-22T22:12:53.960Z,87.35
2022-11-22T22:15:23.075Z,88.82
2022-11-22T22:17:54.661Z,88.66
2022-11-22T22:20:24.157Z,88.68
2022-11-22T22:22:54.807Z,88.02
2022-11-22T22:25:24.145Z,88.16
2022-11-22T22:27:57.096Z,87.55
2022-11-22T22:30:26.433Z,87.86
2022-11-22T22:32:55.822Z,88.52
2022-11-22T22:35:24.934Z,88.98
2022-11-22T22:37:54.389Z,88.54
2022-11-22T22:40:23.653Z,89.06
2022-11-22T22:42:54.475Z,88.67
2022-11-22T22:45:23.675Z,88.97
2022-11-22T22:47:53.152Z,89.16
2022-11-22T22:50:22.230Z,89.19
2022-11-22T22:52:51.737Z,88.84
2022-11-22T22:55:20.896Z,88.33
2022-11-22T22:57:50.276Z,88.70
2022-11-22T23:00:22.159Z,89.32
2022-11-22T23:02:51.573Z,89.32
2022-11-22T23:05:21.106Z,89.10
2022-11-22T23:07:50.510Z,89.38
2022-11-22T23:10:19.688Z,89.13
2022-11-22T23:12:49.048Z,89.03
2022-11-22T23:15:28.451Z,89.04
2022-11-22T23:18:09.125Z,89.17
2022-11-22T23:20:38.192Z,88.41
2022-11-22T23:23:07.645Z,88.25
2022-11-22T23:25:36.734Z,88.02
2022-11-22T23:28:06.234Z,88.76
2022-11-22T23:30:35.356Z,88.57
2022-11-22T23:33:04.959Z,88.99
2022-11-22T23:35:37.805Z,88.95
2022-11-22T23:38:07.113Z,88.89
2022-11-22T23:40:36.253Z,88.77
2022-11-22T23:43:05.727Z,88.78
2022-11-22T23:45:34.844Z,88.61
2022-11-22T23:48:04.316Z,89.08
2022-11-22T23:50:37.501Z,88.56
2022-11-22T23:53:07.039Z,88.29
2022-11-22T23:55:36.346Z,87.80
2022-11-22T23:58:05.863Z,88.65
